LFQQ/LIL METAR and TAF weather

Enter ICAO airport designator
Station Type Date Time Source
LFQQ METAR 2020/06/06 19:30 UTC NOAA

LFQQ 061930Z AUTO 23014KT 9999 BKN036 OVC045 13/05 Q1002 TEMPO 24020G33KT


Station Type Date Time Source
LFQQ Decoded METAR 2020/06/06 19:30 UTC NOAA

Lille, France (LFQQ) 50-34N 003-06E 52M
Jun 06, 2020 - 03:30 PM EDT / 2020.06.06 1930 UTC
Wind: from the SW (230 degrees) at 16 MPH (14 KT):0
Visibility: greater than 7 mile(s):0
Sky conditions: overcast
Temperature: 55 F (13 C)
Dew Point: 41 F (5 C)
Relative Humidity: 58%
Pressure (altimeter): 29.59 in. Hg (1002 hPa)
ob: LFQQ 061930Z AUTO 23014KT 9999 BKN036 OVC045 13/05 Q1002 TEMPO 24020G33KT
cycle: 19

Station Type Date Time Source
LFQQ TAF 2020/06/06 18:21 UTC NOAA

TAF LFQQ 061700Z 0618/0724 24015KT 9999 SCT030 BKN060
TEMPO 0618/0621 24020G33KT
TEMPO 0622/0702 3000 RA BKN013 BKN050CB
FM070200 23005KT 9999 SCT030
BECMG 0710/0713 30010KT

Example: see airport list